Terminal Aerodrome Forecast
Issued by NWS Binghamton, NY

Home | Current Version | Previous Version | Text Only | Print | Product List | Glossary On
Versions: 1 2 3 4 5 6 7 8 9 10 11 12 13 14 15 16 17 18
000
FTUS41 KBGM 310500
TAFBGM
TAF
KBGM 310532Z 3106/0106 32012G22KT 3SM -SHSN OVC015
      TEMPO 3106/3110 2SM -SHSN
     FM311500 32010G18KT P6SM -SHSN SCT015 BKN025
     FM010000 26005KT P6SM BKN040=

USA.gov is the U.S. government's official web portal to all federal, state and local government web resources and services.